createdAt,value
2019-04-14T00:01:39.110Z,5.70
2019-04-14T00:04:16.107Z,5.90
2019-04-14T00:06:46.619Z,5.90
2019-04-14T00:09:20.453Z,6.00
2019-04-14T00:11:53.031Z,6.00
2019-04-14T00:14:23.182Z,5.80
2019-04-14T00:16:53.261Z,5.90
2019-04-14T00:19:23.889Z,5.70
2019-04-14T00:21:54.442Z,5.80
2019-04-14T00:24:24.907Z,5.80
2019-04-14T00:26:55.263Z,5.80
2019-04-14T00:29:26.326Z,5.80
2019-04-14T00:31:56.979Z,5.70
2019-04-14T00:34:46.294Z,5.80
2019-04-14T00:37:34.433Z,5.90
2019-04-14T00:40:23.604Z,5.70
2019-04-14T00:43:04.861Z,6.00
2019-04-14T00:45:49.932Z,5.70
2019-04-14T00:48:19.860Z,5.60
2019-04-14T00:50:49.651Z,5.50
2019-04-14T00:53:20.736Z,5.60
2019-04-14T00:55:51.131Z,5.50
2019-04-14T00:58:23.507Z,5.50
2019-04-14T01:00:53.892Z,5.50
2019-04-14T01:03:24.466Z,5.40
2019-04-14T01:05:54.791Z,5.30
2019-04-14T01:08:24.996Z,5.40
2019-04-14T01:10:56.131Z,5.40
2019-04-14T01:13:26.765Z,5.50
2019-04-14T01:16:03.875Z,5.50
2019-04-14T01:18:29.732Z,5.50
2019-04-14T01:21:00.288Z,5.40
2019-04-14T01:23:30.790Z,5.30
2019-04-14T01:26:00.881Z,5.20
2019-04-14T01:28:30.895Z,5.20
2019-04-14T01:31:01.200Z,5.10
2019-04-14T01:33:31.634Z,5.20
2019-04-14T01:36:01.866Z,5.20
2019-04-14T01:38:31.978Z,5.10
2019-04-14T01:41:02.222Z,5.20
2019-04-14T01:43:32.202Z,5.20
2019-04-14T01:46:11.673Z,5.30
2019-04-14T01:48:35.400Z,5.20
2019-04-14T01:51:23.142Z,5.30
2019-04-14T01:54:10.683Z,5.30
2019-04-14T01:56:53.631Z,5.40
2019-04-14T01:59:24.189Z,5.20
2019-04-14T02:01:55.058Z,5.10
2019-04-14T02:04:25.127Z,5.20
2019-04-14T02:06:55.311Z,5.30
2019-04-14T02:09:25.290Z,5.20
2019-04-14T02:11:55.309Z,5.10
2019-04-14T02:14:25.538Z,5.00
2019-04-14T02:16:59.089Z,5.10
2019-04-14T02:19:28.366Z,5.10
2019-04-14T02:21:58.614Z,5.20
2019-04-14T02:24:28.923Z,5.10
2019-04-14T02:26:59.157Z,5.30
2019-04-14T02:29:29.758Z,5.00
2019-04-14T02:32:28.497Z,5.00
2019-04-14T02:34:57.486Z,5.00
2019-04-14T02:37:26.628Z,4.90
2019-04-14T02:40:18.164Z,5.00
2019-04-14T02:45:08.888Z,4.90
2019-04-14T02:50:10.937Z,5.10
2019-04-14T02:52:46.656Z,5.00
2019-04-14T02:55:10.859Z,5.00
2019-04-14T02:57:49.374Z,4.90
2019-04-14T03:00:25.979Z,4.80
2019-04-14T03:02:47.415Z,4.80
2019-04-14T03:05:19.790Z,4.80
2019-04-14T03:07:51.475Z,4.90
2019-04-14T03:10:28.175Z,4.90
2019-04-14T03:12:57.941Z,4.90
2019-04-14T03:15:37.921Z,4.90
2019-04-14T03:18:33.782Z,4.90
2019-04-14T03:23:53.370Z,4.90
2019-04-14T03:26:29.445Z,4.80
2019-04-14T03:28:56.447Z,4.90
2019-04-14T03:34:30.233Z,4.70
2019-04-14T03:39:17.410Z,4.70
2019-04-14T03:44:20.972Z,4.80
2019-04-14T03:46:53.384Z,4.80
2019-04-14T03:51:50.442Z,4.90
2019-04-14T03:54:15.621Z,4.80
2019-04-14T03:56:49.250Z,4.70
2019-04-14T03:59:19.822Z,4.80
2019-04-14T04:01:50.144Z,4.70
2019-04-14T04:04:20.633Z,4.80
2019-04-14T04:06:51.084Z,4.80
2019-04-14T04:09:25.717Z,4.80
2019-04-14T04:11:56.352Z,4.60
2019-04-14T04:14:27.111Z,4.80
2019-04-14T04:17:12.160Z,4.80
2019-04-14T04:19:53.439Z,4.80
2019-04-14T04:22:43.521Z,4.70
2019-04-14T04:25:22.484Z,4.70
2019-04-14T04:28:06.073Z,4.70
2019-04-14T04:30:47.030Z,4.70
2019-04-14T04:33:26.312Z,4.80
2019-04-14T04:36:01.065Z,4.70
2019-04-14T04:38:39.929Z,4.60
2019-04-14T04:41:10.643Z,4.70
2019-04-14T04:43:41.920Z,4.70
2019-04-14T04:46:13.443Z,4.60
2019-04-14T04:48:43.684Z,4.60
2019-04-14T04:51:13.984Z,4.70
2019-04-14T04:53:44.061Z,4.80
2019-04-14T04:56:14.334Z,4.80
2019-04-14T04:58:44.256Z,4.80
2019-04-14T05:01:14.550Z,4.70
2019-04-14T05:03:44.944Z,4.90
2019-04-14T05:07:09.776Z,4.80
2019-04-14T05:10:02.677Z,4.80
2019-04-14T05:12:39.086Z,4.90
2019-04-14T05:15:35.809Z,4.90
2019-04-14T05:18:07.123Z,5.00
2019-04-14T05:20:37.775Z,5.00
2019-04-14T05:23:10.222Z,5.00
2019-04-14T05:25:41.140Z,5.00
2019-04-14T05:28:11.333Z,5.10
2019-04-14T05:30:41.530Z,5.00
2019-04-14T05:33:12.109Z,5.10
2019-04-14T05:35:42.332Z,5.20
2019-04-14T05:38:12.690Z,5.30
2019-04-14T05:40:42.931Z,5.10
2019-04-14T05:43:14.548Z,5.10
2019-04-14T05:45:45.801Z,5.10
2019-04-14T05:48:18.166Z,6.80
2019-04-14T05:50:49.027Z,7.60
2019-04-14T05:53:19.700Z,6.80
2019-04-14T05:55:50.394Z,6.40
2019-04-14T05:58:20.750Z,6.00
2019-04-14T06:00:51.782Z,6.00
2019-04-14T06:03:23.700Z,5.90
2019-04-14T06:05:53.855Z,5.70
2019-04-14T06:08:23.811Z,5.40
2019-04-14T06:10:53.884Z,5.70
2019-04-14T06:13:23.860Z,5.70
2019-04-14T06:15:53.907Z,5.70
2019-04-14T06:18:23.841Z,5.70
2019-04-14T06:20:53.826Z,5.70
2019-04-14T06:23:23.928Z,5.60
2019-04-14T06:25:53.979Z,5.50
2019-04-14T06:28:23.913Z,5.30
2019-04-14T06:31:09.004Z,5.40
2019-04-14T06:33:50.704Z,5.90
2019-04-14T06:36:40.899Z,5.90
2019-04-14T06:39:15.435Z,5.80
2019-04-14T06:41:45.594Z,5.80
2019-04-14T06:44:15.752Z,5.60
2019-04-14T06:46:45.751Z,5.80
2019-04-14T06:49:15.838Z,7.30
2019-04-14T06:51:45.829Z,7.60
2019-04-14T06:54:15.969Z,8.00
2019-04-14T06:56:45.963Z,7.60
2019-04-14T06:59:15.923Z,8.10
2019-04-14T07:01:45.989Z,8.20
2019-04-14T07:04:15.914Z,7.60
2019-04-14T07:06:45.978Z,7.50
2019-04-14T07:09:15.888Z,7.00
2019-04-14T07:11:45.965Z,7.00
2019-04-14T07:14:16.047Z,6.90
2019-04-14T07:16:45.997Z,6.90
2019-04-14T07:19:15.927Z,7.10
2019-04-14T07:21:45.851Z,7.40
2019-04-14T07:24:15.862Z,7.10
2019-04-14T07:26:45.843Z,7.20
2019-04-14T07:29:15.850Z,7.00
2019-04-14T07:32:04.840Z,7.10
2019-04-14T07:34:50.831Z,7.40
2019-04-14T07:37:58.103Z,7.30
2019-04-14T07:40:59.198Z,7.10
2019-04-14T07:43:59.989Z,7.00
2019-04-14T07:46:51.894Z,7.20
2019-04-14T07:49:50.041Z,7.20
2019-04-14T07:52:50.078Z,7.30
2019-04-14T07:55:39.147Z,8.60
2019-04-14T07:58:23.898Z,8.80
2019-04-14T08:00:57.561Z,8.90
2019-04-14T08:03:43.004Z,8.70
2019-04-14T08:06:13.044Z,8.30
2019-04-14T08:08:43.002Z,8.00
2019-04-14T08:11:13.118Z,7.90
2019-04-14T08:13:43.140Z,8.00
2019-04-14T08:16:13.159Z,7.90
2019-04-14T08:18:43.378Z,7.90
2019-04-14T08:21:13.469Z,8.10
2019-04-14T08:23:43.579Z,7.70
2019-04-14T08:26:13.612Z,7.80
2019-04-14T08:28:43.736Z,7.90
2019-04-14T08:31:13.828Z,7.90
2019-04-14T08:33:43.938Z,7.90
2019-04-14T08:36:13.987Z,8.00
2019-04-14T08:38:44.000Z,8.70
2019-04-14T08:41:13.975Z,9.00
2019-04-14T08:44:03.076Z,8.90
2019-04-14T08:46:46.075Z,9.30
2019-04-14T08:49:33.809Z,9.60
2019-04-14T08:52:11.267Z,10.00
2019-04-14T08:55:00.193Z,10.00
2019-04-14T08:57:47.861Z,9.60
2019-04-14T09:00:31.597Z,9.60
2019-04-14T09:03:26.234Z,9.10
2019-04-14T09:06:21.441Z,9.30
2019-04-14T09:09:28.609Z,9.20
2019-04-14T09:12:14.891Z,9.10
2019-04-14T09:14:36.869Z,9.70
2019-04-14T09:17:06.877Z,10.40
2019-04-14T09:19:36.969Z,10.10
2019-04-14T09:22:06.890Z,9.90
2019-04-14T09:24:36.947Z,10.20
2019-04-14T09:27:06.973Z,10.10
2019-04-14T09:29:36.983Z,10.20
2019-04-14T09:32:09.187Z,10.20
2019-04-14T09:34:39.185Z,9.70
2019-04-14T09:37:12.079Z,9.20
2019-04-14T09:39:41.000Z,9.30
2019-04-14T09:42:10.888Z,9.40
2019-04-14T09:44:40.824Z,9.70
2019-04-14T09:47:10.915Z,9.90
2019-04-14T09:49:40.929Z,9.40
2019-04-14T09:52:11.084Z,9.90
2019-04-14T09:54:41.235Z,10.90
2019-04-14T09:57:11.285Z,10.80
2019-04-14T09:59:41.237Z,10.30
2019-04-14T10:02:11.486Z,9.90
2019-04-14T10:04:41.642Z,10.00
2019-04-14T10:07:11.670Z,9.90
2019-04-14T10:09:41.743Z,10.00
2019-04-14T10:12:11.853Z,10.10
2019-04-14T10:14:41.928Z,10.70
2019-04-14T10:17:11.940Z,10.60
2019-04-14T10:19:41.916Z,10.50
2019-04-14T10:22:12.026Z,10.30
2019-04-14T10:24:42.325Z,10.80
2019-04-14T10:27:12.270Z,11.30
2019-04-14T10:29:42.293Z,10.90
2019-04-14T10:32:12.326Z,10.90
2019-04-14T10:34:42.506Z,10.70
2019-04-14T10:37:14.247Z,10.50
2019-04-14T10:39:45.147Z,10.10
2019-04-14T10:42:15.342Z,10.30
2019-04-14T10:44:45.426Z,10.30
2019-04-14T10:47:15.369Z,10.40
2019-04-14T10:49:45.398Z,10.90
2019-04-14T10:52:15.436Z,11.30
2019-04-14T10:54:45.566Z,11.30
2019-04-14T10:57:15.700Z,11.20
2019-04-14T10:59:45.675Z,10.70
2019-04-14T11:02:15.839Z,10.30
2019-04-14T11:04:45.932Z,10.10
2019-04-14T11:07:27.839Z,10.10
2019-04-14T11:10:17.329Z,10.10
2019-04-14T11:12:47.417Z,10.30
2019-04-14T11:15:17.593Z,10.00
2019-04-14T11:17:47.589Z,9.70
2019-04-14T11:20:18.653Z,9.80
2019-04-14T11:22:48.721Z,10.00
2019-04-14T11:25:18.740Z,10.00
2019-04-14T11:27:48.691Z,10.20
2019-04-14T11:30:20.946Z,10.00
2019-04-14T11:33:11.525Z,9.80
2019-04-14T11:36:03.321Z,9.50
2019-04-14T11:38:47.868Z,9.20
2019-04-14T11:41:21.214Z,8.80
2019-04-14T11:43:51.205Z,9.00
2019-04-14T11:46:21.503Z,9.20
2019-04-14T11:48:52.863Z,9.20
2019-04-14T11:51:22.970Z,9.30
2019-04-14T11:53:53.060Z,9.30
2019-04-14T11:56:23.156Z,9.60
2019-04-14T11:58:53.287Z,9.70
2019-04-14T12:01:51.348Z,9.60
2019-04-14T12:04:27.814Z,9.70
2019-04-14T12:07:15.884Z,9.80
2019-04-14T12:09:58.855Z,9.70
2019-04-14T12:12:29.004Z,9.80
2019-04-14T12:14:58.974Z,9.90
2019-04-14T12:17:29.035Z,10.00
2019-04-14T12:19:59.125Z,10.10
2019-04-14T12:22:29.216Z,10.10
2019-04-14T12:24:59.131Z,9.50
2019-04-14T12:27:29.155Z,9.30
2019-04-14T12:29:59.459Z,9.50
2019-04-14T12:32:30.922Z,9.80
2019-04-14T12:35:01.767Z,10.10
2019-04-14T12:37:31.843Z,10.20
2019-04-14T12:40:02.753Z,9.80
2019-04-14T12:42:49.381Z,9.60
2019-04-14T12:45:48.953Z,9.70
2019-04-14T12:48:36.829Z,9.70
2019-04-14T12:51:20.499Z,9.80
2019-04-14T12:53:50.242Z,9.70
2019-04-14T12:56:24.552Z,9.50
2019-04-14T12:59:13.650Z,9.70
2019-04-14T13:01:51.988Z,9.90
2019-04-14T13:04:22.004Z,9.80
2019-04-14T13:06:52.123Z,9.70
2019-04-14T13:09:22.224Z,9.50
2019-04-14T13:11:52.519Z,9.60
2019-04-14T13:14:22.552Z,9.50
2019-04-14T13:16:52.624Z,9.30
2019-04-14T13:19:22.627Z,9.50
2019-04-14T13:21:53.971Z,9.60
2019-04-14T13:24:25.047Z,9.70
2019-04-14T13:26:55.084Z,9.50
2019-04-14T13:29:25.268Z,9.60
2019-04-14T13:31:55.274Z,9.50
2019-04-14T13:34:25.384Z,9.80
2019-04-14T13:36:55.377Z,9.70
2019-04-14T13:39:26.404Z,9.70
2019-04-14T13:41:56.414Z,9.90
2019-04-14T13:44:26.531Z,9.90
2019-04-14T13:46:58.260Z,10.00
2019-04-14T13:49:28.194Z,10.10
2019-04-14T13:51:58.197Z,9.70
2019-04-14T13:54:28.388Z,9.70
2019-04-14T13:56:58.565Z,9.70
2019-04-14T13:59:29.130Z,9.70
2019-04-14T14:01:59.244Z,9.70
2019-04-14T14:04:30.453Z,9.60
2019-04-14T14:07:00.470Z,9.70
2019-04-14T14:09:30.460Z,9.80
2019-04-14T14:12:11.169Z,10.20
2019-04-14T14:14:58.172Z,10.20
2019-04-14T14:17:47.214Z,9.90
2019-04-14T14:20:35.393Z,9.70
2019-04-14T14:23:24.541Z,9.50
2019-04-14T14:25:59.286Z,9.50
2019-04-14T14:28:29.196Z,9.50
2019-04-14T14:30:59.283Z,9.50
2019-04-14T14:33:29.279Z,9.80
2019-04-14T14:35:59.387Z,9.80
2019-04-14T14:38:29.308Z,10.00
2019-04-14T14:41:00.913Z,10.00
2019-04-14T14:43:32.592Z,10.30
2019-04-14T14:46:20.101Z,10.40
2019-04-14T14:48:54.204Z,10.50
2019-04-14T14:51:41.595Z,10.60
2019-04-14T14:54:12.026Z,10.60
2019-04-14T14:56:42.183Z,10.60
2019-04-14T14:59:12.294Z,10.50
2019-04-14T15:01:43.450Z,10.40
2019-04-14T15:04:13.546Z,10.40
2019-04-14T15:06:43.816Z,10.60
2019-04-14T15:09:14.873Z,10.50
2019-04-14T15:11:45.005Z,10.60
2019-04-14T15:14:15.012Z,10.90
2019-04-14T15:16:45.248Z,11.20
2019-04-14T15:19:15.307Z,11.20
2019-04-14T15:21:45.404Z,10.90
2019-04-14T15:24:15.550Z,10.70
2019-04-14T15:26:45.661Z,10.40
2019-04-14T15:29:15.757Z,10.30
2019-04-14T15:31:45.787Z,10.50
2019-04-14T15:34:15.908Z,10.50
2019-04-14T15:36:45.937Z,10.40
2019-04-14T15:39:16.030Z,10.30
2019-04-14T15:41:46.123Z,10.50
2019-04-14T15:44:16.116Z,10.20
2019-04-14T15:46:46.153Z,10.30
2019-04-14T15:49:16.171Z,10.30
2019-04-14T15:51:46.284Z,10.10
2019-04-14T15:54:16.226Z,10.20
2019-04-14T15:56:58.344Z,10.30
2019-04-14T15:59:52.456Z,10.40
2019-04-14T16:02:51.085Z,10.20
2019-04-14T16:05:49.311Z,10.00
2019-04-14T16:08:32.900Z,10.20
2019-04-14T16:11:08.447Z,9.80
2019-04-14T16:13:56.350Z,9.70
2019-04-14T16:16:44.105Z,9.80
2019-04-14T16:19:22.379Z,9.50
2019-04-14T16:21:52.422Z,9.50
2019-04-14T16:24:22.535Z,9.50
2019-04-14T16:26:58.890Z,9.50
2019-04-14T16:29:36.687Z,9.70
2019-04-14T16:32:20.527Z,9.60
2019-04-14T16:35:09.745Z,9.70
2019-04-14T16:37:39.904Z,9.80
2019-04-14T16:40:10.269Z,9.80
2019-04-14T16:42:40.348Z,9.90
2019-04-14T16:45:11.802Z,9.80
2019-04-14T16:47:41.818Z,10.00
2019-04-14T16:50:11.902Z,9.80
2019-04-14T16:52:49.442Z,9.70
2019-04-14T16:55:33.901Z,9.60
2019-04-14T16:58:27.275Z,9.60
2019-04-14T17:01:01.532Z,9.30
2019-04-14T17:03:31.603Z,9.20
2019-04-14T17:06:01.644Z,9.10
2019-04-14T17:08:31.601Z,9.20
2019-04-14T17:11:01.739Z,9.10
2019-04-14T17:13:34.832Z,9.00
2019-04-14T17:16:29.843Z,9.00
2019-04-14T17:19:12.547Z,9.00
2019-04-14T17:22:04.447Z,8.90
2019-04-14T17:25:05.360Z,9.00
2019-04-14T17:27:53.955Z,9.20
2019-04-14T17:30:40.344Z,9.00
2019-04-14T17:33:15.679Z,8.80
2019-04-14T17:35:50.866Z,8.70
2019-04-14T17:38:28.352Z,8.80
2019-04-14T17:41:19.379Z,9.10
2019-04-14T17:44:07.213Z,8.90
2019-04-14T17:46:54.695Z,9.00
2019-04-14T17:49:40.343Z,8.90
2019-04-14T17:52:27.974Z,8.80
2019-04-14T17:55:03.317Z,8.80
2019-04-14T17:58:00.947Z,8.70
2019-04-14T18:00:52.532Z,8.60
2019-04-14T18:03:41.453Z,8.70
2019-04-14T18:06:22.091Z,8.70
2019-04-14T18:09:09.764Z,8.70
2019-04-14T18:11:51.068Z,8.90
2019-04-14T18:14:45.040Z,9.00
2019-04-14T18:17:43.166Z,9.00
2019-04-14T18:20:20.596Z,8.90
2019-04-14T18:22:51.822Z,8.90
2019-04-14T18:25:21.776Z,8.70
2019-04-14T18:28:13.718Z,8.60
2019-04-14T18:30:50.330Z,8.60
2019-04-14T18:33:28.343Z,8.70
2019-04-14T18:36:02.919Z,8.70
2019-04-14T18:38:43.741Z,8.80
2019-04-14T18:41:26.498Z,8.90
2019-04-14T18:44:06.110Z,8.80
2019-04-14T18:47:00.285Z,8.70
2019-04-14T18:49:44.624Z,8.70
2019-04-14T18:52:26.222Z,8.80
2019-04-14T18:55:21.691Z,8.70
2019-04-14T18:58:16.418Z,8.60
2019-04-14T19:00:51.020Z,8.70
2019-04-14T19:03:22.210Z,8.60
2019-04-14T19:05:52.357Z,8.60
2019-04-14T19:08:22.525Z,8.60
2019-04-14T19:11:07.298Z,8.50
2019-04-14T19:13:37.694Z,8.60
2019-04-14T19:16:14.166Z,8.60
2019-04-14T19:18:47.163Z,8.80
2019-04-14T19:21:19.699Z,8.80
2019-04-14T19:23:49.772Z,9.10
2019-04-14T19:26:19.859Z,8.80
2019-04-14T19:28:49.906Z,8.70
2019-04-14T19:31:20.067Z,8.70
2019-04-14T19:33:50.114Z,8.80
2019-04-14T19:36:20.319Z,8.70
2019-04-14T19:38:50.393Z,8.60
2019-04-14T19:41:20.400Z,8.60
2019-04-14T19:43:52.354Z,8.50
2019-04-14T19:46:23.719Z,8.60
2019-04-14T19:48:53.748Z,8.60
2019-04-14T19:51:23.865Z,8.50
2019-04-14T19:53:53.958Z,8.50
2019-04-14T19:56:24.166Z,8.70
2019-04-14T19:58:54.232Z,8.50
2019-04-14T20:01:24.427Z,8.40
2019-04-14T20:03:54.490Z,8.50
2019-04-14T20:06:24.614Z,8.40
2019-04-14T20:08:54.746Z,8.60
2019-04-14T20:11:24.926Z,8.50
2019-04-14T20:13:55.056Z,8.40
2019-04-14T20:16:42.684Z,8.50
2019-04-14T20:19:28.942Z,8.40
2019-04-14T20:22:16.900Z,8.30
2019-04-14T20:24:56.136Z,8.30
2019-04-14T20:27:31.811Z,8.30
2019-04-14T20:30:06.435Z,8.20
2019-04-14T20:32:37.795Z,8.40
2019-04-14T20:35:08.750Z,8.50
2019-04-14T20:37:38.771Z,8.30
2019-04-14T20:40:09.598Z,8.30
2019-04-14T20:42:39.655Z,8.30
2019-04-14T20:45:13.464Z,8.20
2019-04-14T20:47:43.672Z,8.20
2019-04-14T20:50:13.896Z,8.20
2019-04-14T20:52:43.976Z,8.10
2019-04-14T20:55:14.488Z,8.30
2019-04-14T20:57:44.601Z,8.30
2019-04-14T21:00:16.816Z,8.20
2019-04-14T21:03:04.241Z,8.30
2019-04-14T21:05:45.802Z,8.10
2019-04-14T21:08:46.791Z,8.20
2019-04-14T21:11:26.059Z,8.10
2019-04-14T21:14:23.846Z,8.20
2019-04-14T21:16:58.947Z,8.00
2019-04-14T21:19:54.429Z,7.90
2019-04-14T21:22:34.304Z,7.90
2019-04-14T21:25:23.453Z,8.00
2019-04-14T21:28:11.013Z,7.80
2019-04-14T21:30:46.163Z,8.00
2019-04-14T21:33:29.391Z,7.90
2019-04-14T21:36:22.090Z,8.00
2019-04-14T21:39:11.156Z,7.80
2019-04-14T21:41:41.868Z,7.80
2019-04-14T21:44:12.027Z,7.90
2019-04-14T21:46:42.030Z,8.00
2019-04-14T21:49:12.018Z,7.90
2019-04-14T21:52:04.958Z,7.60
2019-04-14T21:54:34.973Z,7.50
2019-04-14T21:57:22.535Z,7.50
2019-04-14T22:00:14.306Z,7.50
2019-04-14T22:03:01.957Z,7.40
2019-04-14T22:05:41.969Z,7.40
2019-04-14T22:08:15.925Z,7.20
2019-04-14T22:10:49.953Z,7.10
2019-04-14T22:13:20.301Z,7.20
2019-04-14T22:15:50.308Z,7.10
2019-04-14T22:18:20.404Z,7.30
2019-04-14T22:20:50.406Z,7.30
2019-04-14T22:23:20.558Z,7.20
2019-04-14T22:25:50.635Z,7.20
2019-04-14T22:28:20.813Z,7.20
2019-04-14T22:30:51.025Z,7.40
2019-04-14T22:33:21.126Z,7.30
2019-04-14T22:35:51.057Z,7.30
2019-04-14T22:38:21.115Z,7.10
2019-04-14T22:40:51.110Z,7.10
2019-04-14T22:43:21.163Z,7.10
2019-04-14T22:45:51.291Z,7.00
2019-04-14T22:48:21.415Z,7.10
2019-04-14T22:50:51.496Z,7.00
2019-04-14T22:53:21.398Z,7.00
2019-04-14T22:55:51.730Z,7.10
2019-04-14T22:58:21.812Z,6.90
2019-04-14T23:00:56.207Z,7.00
2019-04-14T23:03:51.596Z,7.00
2019-04-14T23:06:44.356Z,6.90
2019-04-14T23:09:39.196Z,6.80
2019-04-14T23:12:28.841Z,6.80
2019-04-14T23:15:13.993Z,6.80
2019-04-14T23:18:06.126Z,6.70
2019-04-14T23:20:57.871Z,6.80
2019-04-14T23:23:47.861Z,6.80
2019-04-14T23:26:18.061Z,6.80
2019-04-14T23:28:48.012Z,6.80
2019-04-14T23:31:20.311Z,6.80
2019-04-14T23:33:50.367Z,6.70
2019-04-14T23:36:20.447Z,6.70
2019-04-14T23:38:50.466Z,6.70
2019-04-14T23:41:20.472Z,6.70
2019-04-14T23:43:50.558Z,6.60
2019-04-14T23:46:20.650Z,6.70
2019-04-14T23:48:50.649Z,6.60
2019-04-14T23:51:20.723Z,6.60
2019-04-14T23:53:50.681Z,6.70
2019-04-14T23:56:22.039Z,6.70
2019-04-14T23:58:52.183Z,6.60
